Time;durP1;ratioP1;P1;durP2;ratioP2;P2;SDS_P1;SDS_P2;PMS_P1;PMS_P2;Temp;Humidity;BMP_temperature;BMP_pressure;BME280_temperature;BME280_humidity;BME280_pressure;Samples;Min_cycle;Max_cycle;Signal;HPM_P1;HPM_P2
2022/03/29 00:00:18;;;;;;;1.70;0.70;;;10.30;63.20;;;;;;5092723;28;20480;-84
2022/03/29 00:02:46;;;;;;;1.53;0.40;;;10.20;63.70;;;;;;5093216;28;20451;-84
2022/03/29 00:05:13;;;;;;;0.40;0.40;;;10.20;63.70;;;;;;5092840;28;20954;-84
2022/03/29 00:07:39;;;;;;;2.00;0.47;;;10.20;64.20;;;;;;5093195;28;20956;-84
2022/03/29 00:10:07;;;;;;;0.50;0.50;;;10.20;64.50;;;;;;5092695;28;20987;-84
2022/03/29 00:12:35;;;;;;;1.17;0.60;;;10.20;64.60;;;;;;5093046;28;20490;-85
2022/03/29 00:15:02;;;;;;;1.17;1.03;;;10.20;64.20;;;;;;5093190;28;20432;-84
2022/03/29 00:17:30;;;;;;;1.03;0.73;;;10.10;64.10;;;;;;5096508;28;20432;-84
2022/03/29 00:19:57;;;;;;;1.03;0.53;;;10.10;63.30;;;;;;5096579;28;20463;-84
2022/03/29 00:22:24;;;;;;;1.33;0.77;;;10.10;63.70;;;;;;5096575;28;20931;-84
2022/03/29 00:24:51;;;;;;;0.60;0.60;;;10.10;63.70;;;;;;5096734;28;20446;-84
2022/03/29 00:27:18;;;;;;;0.70;0.50;;;10.10;63.70;;;;;;5096458;28;20436;-85
2022/03/29 00:29:45;;;;;;;0.60;0.40;;;10.10;63.70;;;;;;5096397;28;20472;-84
2022/03/29 00:32:12;;;;;;;6.50;0.90;;;10.00;64.40;;;;;;5096106;28;21013;-84
2022/03/29 00:34:42;;;;;;;0.43;0.43;;;10.00;64.80;;;;;;5096437;28;20436;-84
2022/03/29 00:37:09;;;;;;;0.50;0.50;;;9.90;65.90;;;;;;5096321;28;20534;-84
2022/03/29 00:39:36;;;;;;;0.40;0.40;;;9.90;66.00;;;;;;5096758;28;20475;-84
2022/03/29 00:42:02;;;;;;;0.70;0.50;;;9.90;65.80;;;;;;5096182;28;20436;-84
2022/03/29 00:44:31;;;;;;;0.40;0.40;;;9.80;66.30;;;;;;5095882;28;20435;-83
2022/03/29 00:46:58;;;;;;;1.47;1.37;;;9.80;65.70;;;;;;5095849;28;20988;-84
2022/03/29 00:49:25;;;;;;;4.50;1.47;;;9.80;66.30;;;;;;5096029;28;20467;-84
2022/03/29 00:51:58;;;;;;;0.70;0.33;;;9.80;66.30;;;;;;5095976;28;20448;-84
2022/03/29 00:54:24;;;;;;;0.50;0.50;;;9.80;66.10;;;;;;5095707;28;20435;-85
2022/03/29 00:56:51;;;;;;;5.80;1.00;;;9.70;66.40;;;;;;5096028;28;20451;-85
2022/03/29 00:59:18;;;;;;;0.90;0.73;;;9.70;66.50;;;;;;5095850;28;20482;-85
2022/03/29 01:01:45;;;;;;;1.67;0.80;;;9.70;66.60;;;;;;5095582;28;20472;-85
2022/03/29 01:04:12;;;;;;;0.70;0.70;;;9.70;66.40;;;;;;5095504;28;20444;-84
2022/03/29 01:06:39;;;;;;;1.40;0.50;;;9.70;66.40;;;;;;5095720;28;20502;-85
2022/03/29 01:09:07;;;;;;;0.97;0.57;;;9.70;67.00;;;;;;5095637;28;20474;-84
2022/03/29 01:11:34;;;;;;;0.73;0.60;;;9.70;67.70;;;;;;5095373;28;20450;-84
2022/03/29 01:14:01;;;;;;;0.47;0.47;;;9.70;67.40;;;;;;5095785;28;20482;-85
2022/03/29 01:19:13;;;;;;;1.07;0.93;;;9.80;67.00;;;;;;5095613;28;20447;-85
2022/03/29 01:21:42;;;;;;;1.63;0.60;;;9.80;67.30;;;;;;5095298;28;20939;-85
2022/03/29 01:24:12;;;;;;;1.73;0.97;;;9.80;67.00;;;;;;5095185;28;20432;-84
2022/03/29 01:26:40;;;;;;;0.80;0.80;;;9.80;68.00;;;;;;5094496;28;20448;-85
2022/03/29 01:29:08;;;;;;;0.73;0.60;;;9.80;68.30;;;;;;5095146;28;20467;-85
2022/03/29 01:31:36;;;;;;;0.80;0.50;;;9.80;68.10;;;;;;5095117;28;20452;-84
2022/03/29 01:34:04;;;;;;;2.33;0.63;;;9.70;68.80;;;;;;5095140;28;20480;-85
2022/03/29 01:36:32;;;;;;;1.20;0.60;;;9.70;68.80;;;;;;5095222;28;20443;-84
2022/03/29 01:38:59;;;;;;;0.50;0.50;;;9.60;69.40;;;;;;5095039;28;20471;-85
2022/03/29 01:41:27;;;;;;;1.07;0.57;;;9.60;70.00;;;;;;5094700;28;20456;-85
2022/03/29 01:43:54;;;;;;;1.03;0.40;;;9.40;70.60;;;;;;5095028;28;20432;-85
2022/03/29 01:46:21;;;;;;;0.50;0.50;;;9.40;69.90;;;;;;5094639;28;20440;-85
2022/03/29 01:48:49;;;;;;;0.40;0.40;;;9.40;69.90;;;;;;5094845;28;20475;-85
2022/03/29 01:51:16;;;;;;;0.73;0.50;;;9.30;68.90;;;;;;5095044;28;20447;-84
2022/03/29 01:53:45;;;;;;;0.50;0.40;;;9.40;68.90;;;;;;5094772;28;20483;-85
2022/03/29 01:56:12;;;;;;;0.47;0.47;;;9.40;68.70;;;;;;5094784;28;20480;-85
2022/03/29 01:58:40;;;;;;;0.60;0.60;;;9.40;68.30;;;;;;5094605;28;20444;-85
2022/03/29 02:01:08;;;;;;;1.90;1.80;;;9.40;68.90;;;;;;5094421;28;20478;-85
2022/03/29 02:03:34;;;;;;;0.50;0.50;;;9.40;69.10;;;;;;5094653;28;20444;-84
2022/03/29 02:06:01;;;;;;;0.93;0.87;;;9.40;69.30;;;;;;5094784;28;20440;-85
2022/03/29 02:08:28;;;;;;;0.60;0.60;;;9.40;70.00;;;;;;5094653;28;20455;-85
2022/03/29 02:10:55;;;;;;;0.43;0.40;;;9.30;70.70;;;;;;5094100;28;20847;-85
2022/03/29 02:13:22;;;;;;;2.43;0.50;;;9.30;70.80;;;;;;5094051;28;20582;-85
2022/03/29 02:15:50;;;;;;;2.70;1.20;;;9.10;70.90;;;;;;5094296;28;20448;-85
2022/03/29 02:18:17;;;;;;;1.50;0.80;;;9.10;70.50;;;;;;5094660;28;20440;-85
2022/03/29 02:20:44;;;;;;;1.23;0.33;;;9.10;68.80;;;;;;5094396;28;20471;-85
2022/03/29 02:23:14;;;;;;;1.23;1.23;;;9.10;68.70;;;;;;5094285;28;20440;-85
2022/03/29 02:25:41;;;;;;;0.73;0.73;;;9.10;69.80;;;;;;5094260;28;20436;-85
2022/03/29 02:28:08;;;;;;;0.40;0.40;;;9.10;68.20;;;;;;5094180;28;20455;-85
2022/03/29 02:30:36;;;;;;;0.70;0.50;;;9.20;68.00;;;;;;5094119;28;20474;-85
2022/03/29 02:33:04;;;;;;;1.67;0.93;;;9.30;68.00;;;;;;5093791;28;20982;-85
2022/03/29 02:35:31;;;;;;;1.00;0.80;;;9.30;67.30;;;;;;5093768;28;20814;-85
2022/03/29 02:37:59;;;;;;;4.13;1.07;;;9.30;67.30;;;;;;5093812;28;21037;-85
2022/03/29 02:40:26;;;;;;;1.40;0.70;;;9.40;67.40;;;;;;5093852;28;20476;-85
2022/03/29 02:42:55;;;;;;;7.50;0.70;;;9.30;67.00;;;;;;5093993;28;20440;-85
2022/03/29 02:45:23;;;;;;;1.47;0.50;;;9.30;66.10;;;;;;5093990;28;20447;-85
2022/03/29 02:47:52;;;;;;;0.67;0.67;;;9.40;65.90;;;;;;5094038;28;20448;-85
2022/03/29 02:50:21;;;;;;;1.67;0.90;;;9.40;65.60;;;;;;5093800;28;20464;-85
2022/03/29 02:52:50;;;;;;;0.60;0.60;;;9.40;66.00;;;;;;5093811;28;20487;-85
2022/03/29 02:55:18;;;;;;;3.07;0.90;;;9.50;65.00;;;;;;5093740;28;20951;-85
2022/03/29 02:57:44;;;;;;;0.60;0.60;;;9.50;64.50;;;;;;5093799;28;20472;-85
2022/03/29 03:00:15;;;;;;;1.37;1.27;;;9.60;64.90;;;;;;5093378;28;20537;-85
2022/03/29 03:02:42;;;;;;;0.60;0.60;;;9.70;64.50;;;;;;5093876;28;20565;-85
2022/03/29 03:05:10;;;;;;;0.70;0.70;;;9.70;65.20;;;;;;5093394;28;20451;-85
2022/03/29 03:07:38;;;;;;;3.70;0.83;;;9.80;64.80;;;;;;5093310;28;21022;-84
2022/03/29 03:10:06;;;;;;;2.83;0.73;;;9.80;65.20;;;;;;5093602;28;20986;-84
2022/03/29 03:12:36;;;;;;;1.57;0.50;;;9.80;66.10;;;;;;5093571;28;20819;-85
2022/03/29 03:15:04;;;;;;;0.50;0.50;;;9.80;66.00;;;;;;5093574;28;20452;-85
2022/03/29 03:17:31;;;;;;;0.93;0.70;;;9.80;66.20;;;;;;5093715;28;20509;-85
2022/03/29 03:19:58;;;;;;;0.93;0.50;;;9.80;66.10;;;;;;5093525;28;20460;-84
2022/03/29 03:22:25;;;;;;;1.27;0.73;;;9.80;65.90;;;;;;5093371;28;20448;-84
2022/03/29 03:24:53;;;;;;;0.70;0.70;;;9.80;66.00;;;;;;5093205;28;20793;-85
2022/03/29 03:27:20;;;;;;;0.50;0.50;;;9.80;66.20;;;;;;5093304;28;20444;-85
2022/03/29 03:29:46;;;;;;;1.67;0.70;;;9.80;66.60;;;;;;5093337;28;20472;-85
2022/03/29 03:32:14;;;;;;;1.63;0.60;;;9.80;66.60;;;;;;5093429;28;20452;-85
2022/03/29 03:34:42;;;;;;;1.47;0.93;;;9.80;66.70;;;;;;5093109;28;20483;-86
2022/03/29 03:37:09;;;;;;;0.40;0.40;;;9.70;66.70;;;;;;5093518;28;20501;-85
2022/03/29 03:39:37;;;;;;;1.67;0.87;;;9.60;67.30;;;;;;5093434;28;20460;-85
2022/03/29 03:42:09;;;;;;;0.87;0.43;;;9.60;67.50;;;;;;5093292;28;20517;-85
2022/03/29 03:44:37;;;;;;;0.60;0.60;;;9.50;68.00;;;;;;5093263;28;20434;-85
2022/03/29 03:47:04;;;;;;;0.50;0.50;;;9.40;69.30;;;;;;5093307;28;20444;-85
2022/03/29 03:49:31;;;;;;;0.43;0.43;;;9.30;69.30;;;;;;5092847;28;21027;-85
2022/03/29 03:51:58;;;;;;;0.77;0.60;;;9.30;69.80;;;;;;5096673;28;20440;-85
2022/03/29 03:54:24;;;;;;;3.10;0.90;;;9.20;69.80;;;;;;5097102;28;20480;-85
2022/03/29 03:56:51;;;;;;;1.47;0.80;;;9.10;70.10;;;;;;5096752;28;20444;-85
2022/03/29 03:59:19;;;;;;;0.80;0.47;;;9.00;71.10;;;;;;5096810;28;20475;-85
2022/03/29 04:01:46;;;;;;;0.50;0.50;;;9.00;71.30;;;;;;5096740;28;20487;-85
2022/03/29 04:04:13;;;;;;;0.50;0.40;;;8.90;71.30;;;;;;5097110;28;20519;-85
2022/03/29 04:06:39;;;;;;;0.60;0.53;;;8.80;71.80;;;;;;5096587;28;20798;-86
2022/03/29 04:09:06;;;;;;;1.80;0.70;;;8.70;72.30;;;;;;5096793;28;20865;-85
2022/03/29 04:11:33;;;;;;;0.90;0.60;;;8.60;72.80;;;;;;5096711;28;20452;-85
2022/03/29 04:14:00;;;;;;;0.57;0.57;;;8.60;73.50;;;;;;5096277;28;21014;-85
2022/03/29 04:16:28;;;;;;;1.17;0.43;;;8.60;74.00;;;;;;5096895;28;20804;-84
2022/03/29 04:18:55;;;;;;;0.40;0.40;;;8.60;73.10;;;;;;5096596;28;20455;-86
2022/03/29 04:21:22;;;;;;;2.40;0.70;;;8.60;73.30;;;;;;5096490;28;20440;-85
2022/03/29 04:23:48;;;;;;;1.07;0.50;;;8.70;71.90;;;;;;5096570;28;20447;-85
2022/03/29 04:26:15;;;;;;;1.17;0.63;;;8.70;72.00;;;;;;5096500;28;20830;-85
2022/03/29 04:28:42;;;;;;;1.20;1.20;;;8.70;71.80;;;;;;5096281;28;20479;-85
2022/03/29 04:31:09;;;;;;;0.37;0.33;;;8.70;71.80;;;;;;5096328;28;20456;-85
2022/03/29 04:33:38;;;;;;;1.57;1.00;;;8.70;71.30;;;;;;5096252;28;20475;-86
2022/03/29 04:36:05;;;;;;;1.23;0.60;;;8.80;71.10;;;;;;5096263;28;20451;-85
2022/03/29 04:38:32;;;;;;;0.73;0.73;;;8.80;71.50;;;;;;5095960;28;20456;-85
2022/03/29 04:40:59;;;;;;;1.03;0.60;;;8.80;71.00;;;;;;5095817;28;20451;-85
2022/03/29 04:43:26;;;;;;;0.50;0.50;;;8.80;71.20;;;;;;5096095;28;20447;-86
2022/03/29 04:45:53;;;;;;;0.50;0.50;;;8.80;71.30;;;;;;5096003;28;20464;-85
2022/03/29 04:48:20;;;;;;;0.63;0.40;;;8.70;71.70;;;;;;5095833;28;20439;-85
2022/03/29 04:50:48;;;;;;;0.60;0.40;;;8.70;72.50;;;;;;5095960;28;20448;-85
2022/03/29 04:53:15;;;;;;;1.17;0.50;;;8.60;73.10;;;;;;5095866;28;20440;-86
2022/03/29 04:55:41;;;;;;;3.23;1.23;;;8.60;73.00;;;;;;5095842;28;20448;-86
2022/03/29 04:58:08;;;;;;;1.70;1.37;;;8.50;73.90;;;;;;5095899;28;20827;-85
2022/03/29 05:00:35;;;;;;;0.50;0.50;;;8.40;74.70;;;;;;5095532;28;20479;-85
2022/03/29 05:03:02;;;;;;;1.07;0.50;;;8.40;74.40;;;;;;5095540;28;20441;-85
2022/03/29 05:05:29;;;;;;;0.90;0.70;;;8.30;74.50;;;;;;5095695;28;20448;-85
2022/03/29 05:07:57;;;;;;;1.00;0.97;;;8.30;74.90;;;;;;5095655;28;20452;-85
2022/03/29 05:10:24;;;;;;;0.40;0.40;;;8.30;75.00;;;;;;5095582;28;20463;-86
2022/03/29 05:12:51;;;;;;;0.97;0.60;;;8.20;74.30;;;;;;5095575;28;20963;-85
2022/03/29 05:15:20;;;;;;;1.00;0.57;;;8.20;74.70;;;;;;5095475;28;20982;-86
2022/03/29 05:17:47;;;;;;;0.73;0.73;;;8.10;75.30;;;;;;5095557;28;20816;-85
2022/03/29 05:20:16;;;;;;;1.20;0.90;;;8.10;75.30;;;;;;5095336;28;20476;-85
2022/03/29 05:22:43;;;;;;;0.43;0.43;;;8.00;75.50;;;;;;5095247;28;20452;-85
2022/03/29 05:25:12;;;;;;;0.50;0.50;;;8.00;75.90;;;;;;5095346;28;20451;-86
2022/03/29 05:27:39;;;;;;;0.43;0.43;;;7.90;76.00;;;;;;5094960;28;20487;-85
2022/03/29 05:30:07;;;;;;;1.07;0.70;;;8.00;76.40;;;;;;5095216;28;20464;-85
2022/03/29 05:32:34;;;;;;;0.50;0.40;;;7.90;77.00;;;;;;5094904;28;20960;-86
2022/03/29 05:35:01;;;;;;;0.80;0.40;;;8.00;77.90;;;;;;5095065;28;20482;-85
2022/03/29 05:37:28;;;;;;;6.10;0.80;;;7.90;78.50;;;;;;5095161;28;20774;-85
2022/03/29 05:39:55;;;;;;;0.33;0.33;;;7.90;78.60;;;;;;5094709;28;20502;-86
2022/03/29 05:42:23;;;;;;;9.03;2.03;;;7.90;78.00;;;;;;5094665;28;20448;-85
2022/03/29 05:44:50;;;;;;;0.93;0.93;;;7.80;77.40;;;;;;5094712;28;20436;-86
2022/03/29 05:50:01;;;;;;;1.83;0.57;;;8.00;78.00;;;;;;5094689;28;20489;-85
2022/03/29 05:52:28;;;;;;;1.90;0.60;;;8.10;77.70;;;;;;5094734;28;20815;-86
2022/03/29 05:54:57;;;;;;;0.77;0.77;;;8.20;79.00;;;;;;5095519;28;20495;-85
2022/03/29 05:57:25;;;;;;;0.60;0.47;;;8.40;78.60;;;;;;5094527;28;20437;-85
2022/03/29 05:59:54;;;;;;;0.43;0.40;;;8.50;78.10;;;;;;5094880;28;20849;-85
2022/03/29 06:02:21;;;;;;;0.40;0.40;;;8.60;78.00;;;;;;5094484;28;20416;-85
2022/03/29 06:04:48;;;;;;;1.37;0.73;;;8.70;77.60;;;;;;5094325;28;20531;-85
2022/03/29 06:07:16;;;;;;;0.67;0.50;;;8.80;77.70;;;;;;5094545;28;20479;-85
2022/03/29 06:09:43;;;;;;;1.33;0.87;;;8.80;78.00;;;;;;5094388;28;20506;-85
2022/03/29 06:12:10;;;;;;;3.03;1.23;;;8.90;78.20;;;;;;5094107;28;20784;-85
2022/03/29 06:14:39;;;;;;;0.50;0.50;;;9.00;78.40;;;;;;5093664;28;20487;-85
2022/03/29 06:17:06;;;;;;;0.40;0.37;;;9.10;78.70;;;;;;5094591;28;20448;-85
2022/03/29 06:19:34;;;;;;;1.00;1.00;;;9.20;77.00;;;;;;5094210;28;20474;-85
2022/03/29 06:22:00;;;;;;;1.80;0.50;;;9.30;76.00;;;;;;5094361;28;20451;-85
2022/03/29 06:24:28;;;;;;;0.73;0.60;;;9.40;75.30;;;;;;5094305;28;20444;-86
2022/03/29 06:26:55;;;;;;;2.67;0.53;;;9.50;74.30;;;;;;5094299;28;20459;-86
2022/03/29 06:29:21;;;;;;;1.00;0.50;;;9.60;73.90;;;;;;5094034;28;20452;-86
2022/03/29 06:31:51;;;;;;;2.80;1.13;;;9.60;73.00;;;;;;5094226;28;20451;-86
2022/03/29 06:34:17;;;;;;;0.97;0.97;;;9.80;72.50;;;;;;5093963;28;20525;-85
2022/03/29 06:36:44;;;;;;;0.60;0.50;;;9.80;72.50;;;;;;5094012;28;20433;-86
2022/03/29 06:39:12;;;;;;;1.13;0.60;;;9.90;71.40;;;;;;5094007;28;20460;-86
2022/03/29 06:41:39;;;;;;;1.67;0.50;;;10.00;70.00;;;;;;5094518;28;20918;-85
2022/03/29 06:44:08;;;;;;;4.03;0.67;;;10.10;68.70;;;;;;5094472;28;20453;-85
2022/03/29 06:46:35;;;;;;;0.40;0.30;;;10.20;68.90;;;;;;5094056;28;20928;-85
2022/03/29 06:49:04;;;;;;;2.63;0.67;;;10.20;68.00;;;;;;5093858;28;20468;-84
2022/03/29 06:51:31;;;;;;;1.07;0.73;;;10.40;68.30;;;;;;5093734;28;20424;-83
2022/03/29 06:53:58;;;;;;;6.53;0.70;;;10.40;68.50;;;;;;5093960;28;20527;-83
2022/03/29 06:56:26;;;;;;;0.67;0.67;;;10.50;68.60;;;;;;5093750;28;20451;-84
2022/03/29 06:58:53;;;;;;;0.93;0.93;;;10.60;68.70;;;;;;5093679;28;20467;-83
2022/03/29 07:01:21;;;;;;;3.80;0.87;;;10.80;68.20;;;;;;5093312;28;20479;-84
2022/03/29 07:03:49;;;;;;;2.77;0.93;;;10.80;68.90;;;;;;5093494;28;20440;-83
2022/03/29 07:06:17;;;;;;;0.87;0.87;;;10.90;71.70;;;;;;5093876;28;20452;-83
2022/03/29 07:11:25;;;;;;;1.63;1.00;;;11.00;73.30;;;;;;5092643;28;20470;-83
2022/03/29 07:13:53;;;;;;;4.43;0.57;;;11.00;73.30;;;;;;5093727;28;20432;-83
2022/03/29 07:16:20;;;;;;;1.20;1.10;;;11.10;73.10;;;;;;5093827;28;20436;-83
2022/03/29 07:18:47;;;;;;;1.33;0.60;;;11.20;73.60;;;;;;5093462;28;20456;-83
2022/03/29 07:21:14;;;;;;;1.33;1.00;;;11.10;71.70;;;;;;5093620;28;20458;-83
2022/03/29 07:23:42;;;;;;;1.10;1.00;;;11.10;71.30;;;;;;5093963;28;20444;-83
2022/03/29 07:26:09;;;;;;;2.80;1.13;;;11.20;71.20;;;;;;5095907;28;20481;-83
2022/03/29 07:28:36;;;;;;;1.50;1.20;;;11.30;70.60;;;;;;5097439;28;20447;-83
2022/03/29 07:31:03;;;;;;;0.50;0.40;;;11.50;70.70;;;;;;5097773;28;20455;-83
2022/03/29 07:33:31;;;;;;;1.17;0.83;;;11.60;70.40;;;;;;5097553;28;20539;-83
2022/03/29 07:35:57;;;;;;;6.80;0.90;;;11.70;70.10;;;;;;5097651;28;20570;-83
2022/03/29 07:38:24;;;;;;;1.67;1.07;;;11.80;69.80;;;;;;5097693;28;20443;-83
2022/03/29 07:40:52;;;;;;;1.53;0.60;;;12.00;70.30;;;;;;5097254;28;20440;-83
2022/03/29 07:43:19;;;;;;;2.10;0.70;;;12.10;69.90;;;;;;5097266;28;20455;-82
2022/03/29 07:45:46;;;;;;;1.93;0.83;;;12.30;69.30;;;;;;5097288;28;20444;-82
2022/03/29 07:48:13;;;;;;;1.00;0.90;;;12.50;69.00;;;;;;5097082;28;20439;-82
2022/03/29 07:50:41;;;;;;;1.83;0.90;;;12.60;69.60;;;;;;5097282;28;20854;-82
2022/03/29 07:53:08;;;;;;;4.83;1.23;;;12.80;68.50;;;;;;5097080;28;20454;-82
2022/03/29 07:55:36;;;;;;;0.80;0.80;;;12.90;68.60;;;;;;5097082;28;20471;-82
2022/03/29 07:58:04;;;;;;;2.73;1.40;;;13.10;68.60;;;;;;5096678;28;20927;-82
2022/03/29 08:00:35;;;;;;;1.20;0.60;;;13.30;65.40;;;;;;5096608;28;20570;-81
2022/03/29 08:03:04;;;;;;;2.97;1.77;;;13.50;62.80;;;;;;5097491;28;20436;-81
2022/03/29 08:05:31;;;;;;;0.80;0.80;;;13.80;61.70;;;;;;5096870;28;20532;-82
2022/03/29 08:07:59;;;;;;;5.83;2.53;;;14.00;61.30;;;;;;5096801;28;20564;-81
2022/03/29 08:10:27;;;;;;;0.70;0.70;;;14.20;60.00;;;;;;5096377;28;20459;-81
2022/03/29 08:12:55;;;;;;;2.57;1.83;;;14.30;59.50;;;;;;5096580;28;20539;-81
2022/03/29 08:15:23;;;;;;;1.10;1.00;;;14.50;59.10;;;;;;5096332;28;20528;-82
2022/03/29 08:17:51;;;;;;;2.70;0.87;;;14.60;58.50;;;;;;5096314;28;21017;-82
2022/03/29 08:20:18;;;;;;;1.83;1.33;;;14.70;58.60;;;;;;5096386;28;20862;-81
2022/03/29 08:22:46;;;;;;;1.77;1.10;;;15.00;58.70;;;;;;5096422;28;20435;-81
2022/03/29 08:25:14;;;;;;;1.10;1.00;;;15.10;59.50;;;;;;5096084;28;20824;-81
2022/03/29 08:27:41;;;;;;;1.50;1.00;;;15.10;60.20;;;;;;5096467;28;20455;-81
2022/03/29 08:30:09;;;;;;;1.30;1.03;;;15.10;60.50;;;;;;5096283;28;20811;-81
2022/03/29 08:32:38;;;;;;;3.07;1.27;;;15.00;60.80;;;;;;5096357;28;20448;-81
2022/03/29 08:35:06;;;;;;;1.27;1.17;;;14.90;61.50;;;;;;5096922;28;20464;-81
2022/03/29 08:37:35;;;;;;;1.97;1.50;;;14.80;62.70;;;;;;5095715;28;20433;-81
2022/03/29 08:40:02;;;;;;;1.97;0.90;;;14.70;62.40;;;;;;5096045;28;20559;-81
2022/03/29 08:42:30;;;;;;;2.30;1.03;;;14.90;62.20;;;;;;5096243;28;20464;-81
2022/03/29 08:44:56;;;;;;;2.03;1.47;;;15.10;59.70;;;;;;5096112;28;20428;-81
2022/03/29 08:47:25;;;;;;;3.30;1.00;;;15.50;58.30;;;;;;5096158;28;20432;-80
2022/03/29 08:49:53;;;;;;;2.10;1.17;;;15.90;58.40;;;;;;5095751;28;20459;-82
2022/03/29 08:52:20;;;;;;;1.07;0.97;;;16.20;56.50;;;;;;5095929;28;20444;-81
2022/03/29 08:54:49;;;;;;;1.50;1.20;;;16.50;56.20;;;;;;5096097;28;20478;-81
2022/03/29 08:57:16;;;;;;;1.97;1.17;;;16.70;56.20;;;;;;5096192;28;20444;-80
2022/03/29 08:59:43;;;;;;;2.33;1.17;;;16.80;55.20;;;;;;5095312;28;20456;-80
2022/03/29 09:02:11;;;;;;;0.60;0.60;;;17.20;55.30;;;;;;5096261;28;20521;-80
2022/03/29 09:04:38;;;;;;;4.47;1.10;;;17.40;54.40;;;;;;5095832;28;20428;-81
2022/03/29 09:07:06;;;;;;;1.70;1.27;;;17.70;54.10;;;;;;5095452;28;20927;-81
2022/03/29 09:09:34;;;;;;;1.23;1.20;;;18.00;52.60;;;;;;5095687;28;20456;-81
2022/03/29 09:12:12;;;;;;;3.50;1.73;;;18.30;52.00;;;;;;5095338;28;20927;-81
2022/03/29 09:14:52;;;;;;;0.93;0.83;;;18.40;52.70;;;;;;5095523;28;20493;-81
2022/03/29 09:17:26;;;;;;;3.73;1.57;;;18.40;51.40;;;;;;5095364;28;20428;-81
2022/03/29 09:19:55;;;;;;;1.77;1.20;;;18.30;51.30;;;;;;5095475;28;20473;-81
2022/03/29 09:22:36;;;;;;;8.00;1.73;;;18.40;51.50;;;;;;5095362;28;20471;-81
2022/03/29 09:25:05;;;;;;;1.63;1.30;;;18.30;51.60;;;;;;5095375;28;20444;-81
2022/03/29 09:27:47;;;;;;;3.80;1.70;;;18.40;51.70;;;;;;5095297;28;20420;-82
2022/03/29 09:30:15;;;;;;;2.07;1.37;;;18.50;51.40;;;;;;5094867;28;20464;-82
2022/03/29 09:32:52;;;;;;;2.50;1.73;;;18.70;50.90;;;;;;5095789;28;20431;-81
2022/03/29 09:35:19;;;;;;;4.00;1.27;;;18.80;50.70;;;;;;5095086;28;20467;-81
2022/03/29 09:37:48;;;;;;;1.40;0.80;;;18.90;49.00;;;;;;5095112;28;20448;-81
2022/03/29 09:40:15;;;;;;;1.43;1.33;;;19.00;49.20;;;;;;5094603;28;20479;-81
2022/03/29 09:42:43;;;;;;;4.00;1.73;;;19.10;50.80;;;;;;5095136;28;20428;-81
2022/03/29 09:45:10;;;;;;;6.57;1.50;;;19.00;50.90;;;;;;5095092;28;20435;-81
2022/03/29 09:47:37;;;;;;;2.60;1.50;;;18.90;50.90;;;;;;5094091;28;20454;-81
2022/03/29 09:50:06;;;;;;;2.47;1.40;;;18.70;51.40;;;;;;5094717;28;20467;-81
2022/03/29 09:52:35;;;;;;;1.83;1.30;;;18.50;51.50;;;;;;5094849;28;20448;-81
2022/03/29 09:55:14;;;;;;;2.40;1.90;;;18.50;51.70;;;;;;5094408;28;20464;-81
2022/03/29 09:57:44;;;;;;;2.47;1.47;;;18.50;51.60;;;;;;5095108;28;20792;-81
2022/03/29 10:00:13;;;;;;;1.67;0.90;;;18.50;51.20;;;;;;5094358;28;20487;-81
2022/03/29 10:02:41;;;;;;;3.07;1.53;;;18.60;51.20;;;;;;5094598;28;20455;-82
2022/03/29 10:05:11;;;;;;;4.00;1.63;;;18.60;50.40;;;;;;5094749;28;20499;-81
2022/03/29 10:07:42;;;;;;;2.30;1.00;;;18.80;50.20;;;;;;5094539;28;20501;-81
2022/03/29 10:10:11;;;;;;;4.73;1.80;;;19.00;50.50;;;;;;5094508;28;20468;-81
2022/03/29 10:12:39;;;;;;;4.40;1.60;;;19.10;49.70;;;;;;5094486;28;20489;-81
2022/03/29 10:15:07;;;;;;;5.30;1.50;;;19.20;49.70;;;;;;5094255;28;20488;-81
2022/03/29 10:17:35;;;;;;;2.57;1.40;;;19.20;50.00;;;;;;5094435;28;20443;-81
2022/03/29 10:20:01;;;;;;;4.30;1.17;;;19.40;49.40;;;;;;5094245;28;20573;-81
2022/03/29 10:22:28;;;;;;;1.63;1.23;;;19.50;49.40;;;;;;5094368;28;20481;-81
2022/03/29 10:24:55;;;;;;;5.60;2.30;;;19.80;48.30;;;;;;5094323;28;20412;-81
2022/03/29 10:27:24;;;;;;;2.43;1.57;;;20.00;47.90;;;;;;5094270;28;20439;-82
2022/03/29 10:29:50;;;;;;;2.77;1.30;;;19.70;48.00;;;;;;5093879;28;20557;-81
2022/03/29 10:32:32;;;;;;;1.80;1.03;;;19.40;49.10;;;;;;5093895;28;20456;-81
2022/03/29 10:35:06;;;;;;;3.67;2.00;;;19.30;48.90;;;;;;5094072;28;20432;-81
2022/03/29 10:37:52;;;;;;;3.43;2.07;;;19.10;49.30;;;;;;5094332;28;20443;-81
2022/03/29 10:40:36;;;;;;;2.00;1.17;;;19.20;49.60;;;;;;5093694;28;20452;-81
2022/03/29 10:43:30;;;;;;;3.30;1.43;;;19.40;49.50;;;;;;5094903;28;20490;-82
2022/03/29 10:45:59;;;;;;;2.67;1.40;;;19.40;48.30;;;;;;5093597;28;20431;-81
2022/03/29 10:48:27;;;;;;;1.00;0.90;;;19.50;48.30;;;;;;5093760;28;20493;-81
2022/03/29 10:50:59;;;;;;;2.87;1.70;;;19.60;47.90;;;;;;5094059;28;20435;-81
2022/03/29 10:53:29;;;;;;;3.20;1.53;;;19.70;46.90;;;;;;5093863;28;20515;-81
2022/03/29 10:56:16;;;;;;;1.90;1.20;;;19.80;47.90;;;;;;5093441;28;20475;-81
2022/03/29 10:59:14;;;;;;;4.67;2.30;;;19.90;47.10;;;;;;5093715;28;20483;-82
2022/03/29 11:01:42;;;;;;;1.53;1.43;;;20.10;46.50;;;;;;5093622;28;20836;-81
2022/03/29 11:04:20;;;;;;;2.60;1.60;;;20.20;45.60;;;;;;5093907;28;20439;-82
2022/03/29 11:07:12;;;;;;;5.20;1.83;;;20.10;45.30;;;;;;5093417;28;20522;-81
2022/03/29 11:09:40;;;;;;;3.10;1.13;;;20.00;46.50;;;;;;5093866;28;20550;-81
2022/03/29 11:12:28;;;;;;;2.10;1.57;;;19.80;47.90;;;;;;5094062;28;20523;-81
2022/03/29 11:14:56;;;;;;;2.40;1.13;;;19.80;46.20;;;;;;5093323;28;20814;-81
2022/03/29 11:17:40;;;;;;;1.80;1.33;;;19.70;47.10;;;;;;5093542;28;20483;-82
2022/03/29 11:20:30;;;;;;;2.53;1.33;;;19.70;48.10;;;;;;5094114;28;20482;-84
2022/03/29 11:23:00;;;;;;;4.20;1.60;;;19.30;45.30;;;;;;5094629;28;20518;-83
2022/03/29 11:25:27;;;;;;;2.77;1.40;;;19.30;45.80;;;;;;5094332;28;20446;-83
2022/03/29 11:27:54;;;;;;;2.87;1.47;;;19.40;45.80;;;;;;5094130;28;20458;-83
2022/03/29 11:30:22;;;;;;;2.23;1.20;;;19.30;44.90;;;;;;5094205;28;20471;-83
2022/03/29 11:32:49;;;;;;;1.77;1.43;;;19.30;44.70;;;;;;5093997;28;20432;-84
2022/03/29 11:35:19;;;;;;;4.07;1.53;;;19.30;44.60;;;;;;5094010;28;20432;-83
2022/03/29 11:37:49;;;;;;;4.00;1.50;;;19.40;44.20;;;;;;5095157;28;20968;-84
2022/03/29 11:40:18;;;;;;;2.83;1.63;;;19.40;44.20;;;;;;5094117;28;20875;-83
2022/03/29 11:42:46;;;;;;;2.60;1.60;;;19.30;44.20;;;;;;5094293;28;20458;-83
2022/03/29 11:45:14;;;;;;;1.30;1.20;;;19.30;43.30;;;;;;5094500;28;20801;-83
2022/03/29 11:47:52;;;;;;;1.63;1.23;;;19.10;42.60;;;;;;5094020;28;20446;-83
2022/03/29 11:50:30;;;;;;;2.43;1.40;;;19.00;43.40;;;;;;5093898;28;20475;-83
2022/03/29 11:52:57;;;;;;;3.90;1.33;;;19.00;43.50;;;;;;5093812;28;20432;-83
2022/03/29 11:55:24;;;;;;;4.30;1.73;;;19.00;43.00;;;;;;5093810;28;20420;-84
2022/03/29 11:57:52;;;;;;;1.00;1.00;;;19.00;42.60;;;;;;5094260;28;20452;-84
2022/03/29 12:00:24;;;;;;;3.13;1.50;;;19.00;44.10;;;;;;5093842;28;20564;-84
2022/03/29 12:02:53;;;;;;;2.40;0.93;;;19.10;42.50;;;;;;5093992;28;20440;-83
2022/03/29 12:05:21;;;;;;;1.40;1.10;;;19.10;42.60;;;;;;5093778;28;20432;-83
2022/03/29 12:07:56;;;;;;;2.30;1.40;;;19.10;41.80;;;;;;5093971;28;20447;-83
2022/03/29 12:10:26;;;;;;;2.20;2.00;;;19.10;42.90;;;;;;5093600;28;20466;-83
2022/03/29 12:12:53;;;;;;;2.00;1.20;;;18.90;43.20;;;;;;5096709;28;20451;-83
2022/03/29 12:15:21;;;;;;;3.57;1.50;;;18.90;43.70;;;;;;5097048;28;20443;-82
2022/03/29 12:18:40;;;;;;;2.37;1.10;;;18.90;43.70;;;;;;5097527;28;20456;-83
2022/03/29 12:20:45;;;;;;;4.60;1.93;;;18.90;43.50;;;;;;5096789;28;20494;-83
2022/03/29 12:23:16;;;;;;;1.63;1.23;;;18.80;43.00;;;;;;5097028;28;20436;-83
2022/03/29 12:25:44;;;;;;;2.30;1.50;;;18.80;42.00;;;;;;5097354;28;20451;-83
2022/03/29 12:28:11;;;;;;;2.53;1.63;;;18.70;42.70;;;;;;5097015;28;20561;-83
2022/03/29 12:30:38;;;;;;;1.30;1.10;;;18.60;42.60;;;;;;5097367;28;20491;-83
2022/03/29 12:33:06;;;;;;;2.90;1.23;;;18.70;43.20;;;;;;5097339;28;20451;-83
2022/03/29 12:35:33;;;;;;;1.30;1.20;;;18.70;44.70;;;;;;5096973;28;20434;-84
2022/03/29 12:38:04;;;;;;;3.50;1.67;;;18.80;44.40;;;;;;5097197;28;20452;-84
2022/03/29 12:40:31;;;;;;;3.13;1.70;;;18.90;43.70;;;;;;5097350;28;20471;-84
2022/03/29 12:43:02;;;;;;;1.40;1.30;;;19.00;44.10;;;;;;5096780;28;20440;-83
2022/03/29 12:45:30;;;;;;;2.37;1.30;;;19.00;43.60;;;;;;5096808;28;20429;-85
2022/03/29 12:47:58;;;;;;;3.20;1.50;;;19.20;43.90;;;;;;5096997;28;20439;-86
2022/03/29 12:50:28;;;;;;;2.07;1.80;;;19.10;42.70;;;;;;5096787;28;20522;-86
2022/03/29 12:53:04;;;;;;;1.70;1.03;;;18.90;42.40;;;;;;5097046;28;20448;-85
2022/03/29 12:55:31;;;;;;;1.80;1.47;;;18.90;43.40;;;;;;5097241;28;20439;-85
2022/03/29 12:58:00;;;;;;;4.80;1.63;;;18.90;42.70;;;;;;5097582;28;20771;-85
2022/03/29 13:00:37;;;;;;;1.43;1.20;;;18.80;42.40;;;;;;5096297;28;20480;-83
2022/03/29 13:03:08;;;;;;;3.70;1.70;;;18.80;42.20;;;;;;5096708;28;20864;-83
2022/03/29 13:05:37;;;;;;;2.73;1.73;;;18.80;41.30;;;;;;5096676;28;20429;-83